Time;durP1;ratioP1;P1;durP2;ratioP2;P2;SDS_P1;SDS_P2;PMS_P1;PMS_P2;Temp;Humidity;BMP_temperature;BMP_pressure;BME280_temperature;BME280_humidity;BME280_pressure;Samples;Min_cycle;Max_cycle;Signal;HPM_P1;HPM_P2
2022/06/01 00:00:29;;;;;;;0.43;0.40;;;9.90;99.90;;;;;;5053951;28;20080;-80
2022/06/01 00:02:57;;;;;;;0.20;0.20;;;9.90;99.90;;;;;;5056269;28;20040;-82
2022/06/01 00:05:25;;;;;;;0.10;0.10;;;9.90;99.90;;;;;;5054277;28;20032;-80
2022/06/01 00:07:51;;;;;;;0.10;0.10;;;10.00;99.90;;;;;;5070558;28;20045;-82
2022/06/01 00:10:19;;;;;;;0.10;0.10;;;10.00;99.90;;;;;;5053491;28;20047;-82
2022/06/01 00:12:46;;;;;;;0.10;0.10;;;10.00;99.90;;;;;;5070309;28;20045;-82
2022/06/01 00:15:15;;;;;;;0.13;0.13;;;10.10;99.90;;;;;;5053831;28;20056;-82
2022/06/01 00:17:42;;;;;;;0.10;0.10;;;10.10;99.90;;;;;;5054084;28;20041;-82
2022/06/01 00:20:10;;;;;;;0.10;0.10;;;10.10;99.90;;;;;;5086954;28;20520;-83
2022/06/01 00:22:36;;;;;;;0.00;0.00;;;10.10;99.90;;;;;;5053476;28;20455;-80
2022/06/01 00:25:06;;;;;;;0.20;0.20;;;10.10;99.90;;;;;;5053517;28;20079;-80
2022/06/01 00:27:34;;;;;;;0.15;0.15;;;10.10;99.90;;;;;;5070290;28;20132;-80
2022/06/01 00:30:01;;;;;;;0.20;0.20;;;10.20;99.90;;;;;;5053860;28;20040;-82
2022/06/01 00:32:28;;;;;;;0.20;0.20;;;10.20;99.90;;;;;;5064963;28;20116;-82
2022/06/01 00:34:55;;;;;;;0.25;0.25;;;10.20;99.90;;;;;;5057394;28;20536;-82
2022/06/01 00:37:21;;;;;;;0.40;0.20;;;10.20;99.90;;;;;;5073432;28;20127;-82
2022/06/01 00:39:48;;;;;;;0.20;0.20;;;10.30;99.90;;;;;;5056878;28;20041;-80
2022/06/01 00:42:22;;;;;;;0.30;0.30;;;10.40;99.90;;;;;;5088679;28;20059;-82
2022/06/01 00:44:49;;;;;;;0.10;0.10;;;10.30;99.90;;;;;;5106720;28;20055;-82
2022/06/01 00:47:17;;;;;;;0.30;0.20;;;10.30;99.90;;;;;;5073441;28;20043;-82
2022/06/01 00:50:08;;;;;;;0.17;0.15;;;10.30;99.90;;;;;;5106563;28;20123;-82
2022/06/01 00:52:38;;;;;;;0.30;0.30;;;10.30;99.90;;;;;;5103203;28;20037;-82
2022/06/01 00:55:27;;;;;;;0.15;0.15;;;10.40;99.90;;;;;;5069922;28;20041;-80
2022/06/01 00:58:03;;;;;;;0.30;0.30;;;10.40;99.90;;;;;;5086519;28;20409;-80
2022/06/01 01:00:32;;;;;;;0.10;0.10;;;10.40;99.90;;;;;;5069331;28;20506;-82
2022/06/01 01:03:02;;;;;;;0.40;0.20;;;10.30;99.90;;;;;;5070300;28;20769;-82
2022/06/01 01:05:33;;;;;;;1.20;0.32;;;10.30;99.90;;;;;;5089255;28;20028;-80
2022/06/01 01:08:03;;;;;;;0.15;0.15;;;10.40;99.90;;;;;;5090083;28;20040;-80
2022/06/01 01:10:30;;;;;;;0.10;0.10;;;10.40;99.90;;;;;;5089219;28;20744;-83
2022/06/01 01:12:59;;;;;;;0.20;0.20;;;10.10;99.90;;;;;;5089393;28;20042;-80
2022/06/01 01:15:42;;;;;;;0.10;0.10;;;10.30;99.90;;;;;;5072181;28;20531;-80
2022/06/01 01:18:13;;;;;;;0.20;0.20;;;10.30;99.90;;;;;;5106236;28;20474;-80
2022/06/01 01:21:10;;;;;;;0.30;0.17;;;10.30;99.90;;;;;;5088922;28;20059;-82
2022/06/01 01:23:49;;;;;;;0.47;0.40;;;10.30;99.90;;;;;;5059642;28;20470;-80
2022/06/01 01:26:16;;;;;;;0.20;0.20;;;10.30;99.90;;;;;;5089399;28;20111;-82
2022/06/01 01:28:43;;;;;;;0.20;0.20;;;10.30;99.90;;;;;;5072522;28;20040;-80
2022/06/01 01:31:16;;;;;;;0.10;0.10;;;10.30;99.90;;;;;;5089673;28;20036;-80
2022/06/01 01:33:45;;;;;;;0.35;0.30;;;10.30;99.90;;;;;;5089319;28;20131;-82
2022/06/01 01:36:14;;;;;;;0.10;0.10;;;10.30;99.90;;;;;;5072898;28;20036;-80
2022/06/01 01:39:09;;;;;;;0.10;0.10;;;10.30;99.90;;;;;;5088411;28;20486;-80
2022/06/01 01:41:43;;;;;;;0.20;0.20;;;10.30;99.90;;;;;;5088830;28;20106;-82
2022/06/01 01:44:25;;;;;;;0.10;0.10;;;10.30;99.90;;;;;;5106099;28;20043;-82
2022/06/01 01:46:53;;;;;;;0.65;0.43;;;10.30;99.90;;;;;;5089494;28;20036;-82
2022/06/01 01:49:23;;;;;;;0.38;0.25;;;10.30;99.90;;;;;;5069671;28;20090;-80
2022/06/01 01:51:54;;;;;;;0.43;0.40;;;10.30;99.90;;;;;;5085985;28;20059;-80
2022/06/01 01:54:48;;;;;;;0.43;0.25;;;10.30;99.90;;;;;;5070339;28;20163;-80
2022/06/01 01:57:33;;;;;;;0.10;0.10;;;10.30;99.90;;;;;;5089987;28;20044;-80
2022/06/01 02:00:24;;;;;;;0.30;0.30;;;10.40;99.90;;;;;;5076820;28;20127;-83
2022/06/01 02:02:53;;;;;;;0.35;0.32;;;10.30;99.90;;;;;;5069861;28;20291;-82
2022/06/01 02:08:17;;;;;;;0.32;0.28;;;10.30;99.90;;;;;;5069286;28;20517;-80
2022/06/01 02:13:31;;;;;;;0.17;0.17;;;10.30;99.90;;;;;;5089210;28;20162;-80
2022/06/01 02:16:01;;;;;;;0.40;0.40;;;10.40;99.90;;;;;;5073000;28;20041;-80
2022/06/01 02:18:33;;;;;;;0.15;0.15;;;10.80;99.90;;;;;;5072316;28;20076;-80
2022/06/01 02:21:06;;;;;;;0.20;0.10;;;10.30;99.90;;;;;;5107029;28;20041;-80
2022/06/01 02:23:33;;;;;;;0.15;0.15;;;10.30;99.90;;;;;;5092777;28;20440;-82
2022/06/01 02:26:01;;;;;;;0.20;0.20;;;10.30;99.90;;;;;;5060153;28;20094;-80
2022/06/01 02:28:29;;;;;;;0.20;0.20;;;10.40;99.90;;;;;;5076273;28;20191;-82
2022/06/01 02:30:57;;;;;;;0.20;0.20;;;10.20;99.90;;;;;;5062259;28;20124;-82
2022/06/01 02:33:32;;;;;;;0.25;0.25;;;10.20;99.90;;;;;;5088956;28;20056;-82
2022/06/01 02:36:00;;;;;;;;;;;10.10;99.90;;;;;;5072685;28;20493;-82
2022/06/01 02:38:45;;;;;;;0.38;0.38;;;10.20;99.90;;;;;;5072396;28;19939;-80
2022/06/01 02:43:58;;;;;;;0.30;0.30;;;10.20;99.90;;;;;;5109154;28;20043;-81
2022/06/01 02:46:25;;;;;;;0.28;0.28;;;10.30;99.90;;;;;;5109027;28;20110;-82
2022/06/01 02:48:52;;;;;;;0.35;0.28;;;10.10;99.90;;;;;;5092009;28;20063;-82
2022/06/01 02:51:19;;;;;;;0.43;0.40;;;10.20;99.90;;;;;;5083995;28;20037;-81
2022/06/01 02:53:46;;;;;;;0.30;0.30;;;10.20;99.90;;;;;;5088549;28;20486;-80
2022/06/01 02:56:13;;;;;;;0.47;0.38;;;10.20;99.90;;;;;;5055675;28;20044;-82
2022/06/01 02:58:40;;;;;;;0.15;0.15;;;10.30;99.90;;;;;;5071586;28;20056;-82
2022/06/01 03:01:07;;;;;;;0.20;0.20;;;10.30;99.90;;;;;;5073894;28;20079;-81
2022/06/01 03:03:35;;;;;;;0.20;0.20;;;10.20;99.90;;;;;;5091665;28;20048;-80
2022/06/01 03:06:02;;;;;;;0.10;0.10;;;10.20;99.90;;;;;;5091822;28;20043;-80
2022/06/01 03:08:29;;;;;;;0.28;0.28;;;10.20;99.90;;;;;;5091878;28;20124;-80
2022/06/01 03:10:56;;;;;;;0.30;0.30;;;10.20;99.90;;;;;;5075116;28;20619;-80
2022/06/01 03:13:24;;;;;;;0.20;0.20;;;10.30;99.90;;;;;;5074342;28;20390;-80
2022/06/01 03:15:52;;;;;;;0.25;0.25;;;10.30;99.90;;;;;;5082627;28;20036;-80
2022/06/01 03:18:19;;;;;;;0.20;0.20;;;10.30;99.90;;;;;;5054866;28;20041;-82
2022/06/01 03:20:46;;;;;;;0.40;0.22;;;10.30;99.90;;;;;;5054037;28;20044;-82
2022/06/01 03:23:13;;;;;;;0.28;0.28;;;10.30;99.90;;;;;;5071507;28;20041;-80
2022/06/01 03:25:41;;;;;;;0.13;0.13;;;10.30;99.90;;;;;;5054306;28;20380;-80
2022/06/01 03:28:09;;;;;;;0.43;0.30;;;10.40;99.90;;;;;;5055002;28;20068;-82
2022/06/01 03:30:36;;;;;;;0.43;0.35;;;10.40;99.90;;;;;;5070494;28;20448;-80
2022/06/01 03:33:03;;;;;;;0.17;0.17;;;10.30;99.90;;;;;;5054810;28;20037;-82
2022/06/01 03:35:32;;;;;;;0.25;0.25;;;10.30;99.90;;;;;;5054370;28;20076;-80
2022/06/01 03:37:59;;;;;;;0.30;0.20;;;10.30;99.90;;;;;;5053951;28;20044;-81
2022/06/01 03:40:29;;;;;;;0.30;0.30;;;10.30;99.90;;;;;;5073102;28;20041;-80
2022/06/01 03:42:56;;;;;;;0.25;0.25;;;10.40;99.90;;;;;;5074165;28;20044;-82
2022/06/01 03:48:08;;;;;;;0.32;0.30;;;10.40;99.90;;;;;;5077074;28;20046;-82
2022/06/01 03:50:36;;;;;;;0.17;0.17;;;10.40;99.90;;;;;;5058490;28;20039;-82
2022/06/01 03:53:05;;;;;;;0.10;0.10;;;10.40;99.90;;;;;;5074140;28;20197;-81
2022/06/01 03:55:32;;;;;;;0.30;0.30;;;10.40;99.90;;;;;;5091037;28;20423;-82
2022/06/01 03:57:59;;;;;;;0.30;0.30;;;10.40;99.90;;;;;;5057626;28;20041;-80
2022/06/01 04:00:26;;;;;;;0.43;0.35;;;10.40;99.90;;;;;;5074116;28;20040;-80
2022/06/01 04:02:53;;;;;;;0.20;0.20;;;10.50;99.90;;;;;;5057605;28;20117;-80
2022/06/01 04:05:22;;;;;;;0.50;0.28;;;10.50;99.90;;;;;;5057789;28;20040;-82
2022/06/01 04:07:50;;;;;;;0.30;0.30;;;10.50;99.90;;;;;;5073850;28;20481;-80
2022/06/01 04:10:17;;;;;;;0.50;0.35;;;10.50;99.90;;;;;;5106757;28;20041;-82
2022/06/01 04:12:44;;;;;;;1.02;0.65;;;10.70;99.90;;;;;;5078214;28;20033;-80
2022/06/01 04:15:11;;;;;;;0.45;0.40;;;10.50;99.90;;;;;;5054051;28;20466;-81
2022/06/01 04:17:38;;;;;;;0.55;0.30;;;10.50;99.90;;;;;;5072965;28;20420;-80
2022/06/01 04:20:06;;;;;;;0.20;0.20;;;10.50;99.90;;;;;;5057188;28;20047;-81
2022/06/01 04:22:37;;;;;;;0.10;0.10;;;10.50;99.90;;;;;;5073538;28;20044;-82
2022/06/01 04:25:04;;;;;;;0.22;0.20;;;10.50;99.90;;;;;;5090140;28;20497;-81
2022/06/01 04:27:30;;;;;;;0.35;0.20;;;10.50;99.90;;;;;;5074097;28;20044;-80
2022/06/01 04:29:57;;;;;;;0.10;0.10;;;10.50;99.90;;;;;;5073734;28;20576;-82
2022/06/01 04:32:27;;;;;;;1.10;0.70;;;10.50;99.90;;;;;;5073882;28;20417;-80
2022/06/01 04:34:53;;;;;;;0.47;0.35;;;10.50;99.90;;;;;;5074714;28;20037;-80
2022/06/01 04:37:20;;;;;;;0.25;0.22;;;10.60;99.90;;;;;;5081661;28;20033;-82
2022/06/01 04:39:47;;;;;;;0.20;0.20;;;10.60;99.90;;;;;;5040203;28;20041;-82
2022/06/01 04:42:14;;;;;;;0.47;0.32;;;10.70;99.90;;;;;;5059107;28;20080;-82
2022/06/01 04:44:41;;;;;;;0.47;0.28;;;10.70;99.90;;;;;;5080180;28;20070;-80
2022/06/01 04:47:09;;;;;;;0.50;0.30;;;10.80;99.90;;;;;;5053351;28;20091;-82
2022/06/01 04:49:36;;;;;;;0.30;0.30;;;10.80;99.90;;;;;;5037920;28;20043;-81
2022/06/01 04:52:04;;;;;;;0.75;0.50;;;10.90;99.90;;;;;;5071358;28;20048;-82
2022/06/01 04:54:30;;;;;;;0.40;0.35;;;10.90;99.90;;;;;;5069632;28;20101;-83
2022/06/01 04:56:57;;;;;;;0.28;0.15;;;10.90;99.90;;;;;;5069045;28;20040;-82
2022/06/01 04:59:25;;;;;;;0.32;0.28;;;10.90;99.90;;;;;;5053053;28;20045;-83
2022/06/01 05:01:52;;;;;;;0.25;0.20;;;11.00;99.90;;;;;;5060843;28;20167;-82
2022/06/01 05:04:19;;;;;;;0.52;0.38;;;11.00;99.90;;;;;;5072278;28;20507;-83
2022/06/01 05:06:45;;;;;;;0.30;0.30;;;11.00;99.90;;;;;;5072370;28;20032;-82
2022/06/01 05:09:12;;;;;;;0.30;0.30;;;11.00;99.90;;;;;;5056353;28;20045;-83
2022/06/01 05:11:39;;;;;;;0.25;0.20;;;11.00;99.90;;;;;;5056733;28;20088;-83
2022/06/01 05:14:06;;;;;;;0.20;0.20;;;11.00;99.90;;;;;;5073086;28;20103;-81
2022/06/01 05:16:33;;;;;;;0.47;0.28;;;11.10;99.90;;;;;;5072175;28;20103;-82
2022/06/01 05:19:00;;;;;;;0.30;0.22;;;11.10;99.90;;;;;;5089220;28;20041;-83
2022/06/01 05:21:27;;;;;;;0.82;0.40;;;11.10;99.90;;;;;;5073051;28;20055;-81
2022/06/01 05:23:54;;;;;;;0.22;0.22;;;11.20;99.90;;;;;;5065976;28;20028;-82
2022/06/01 05:26:20;;;;;;;0.40;0.40;;;11.20;99.90;;;;;;5058590;28;20509;-82
2022/06/01 05:28:47;;;;;;;0.30;0.22;;;11.30;99.90;;;;;;5056262;28;20493;-82
2022/06/01 05:31:14;;;;;;;0.47;0.40;;;11.30;99.90;;;;;;5072417;28;20148;-81
2022/06/01 05:33:43;;;;;;;0.45;0.30;;;11.40;99.90;;;;;;5075433;28;20041;-81
2022/06/01 05:36:16;;;;;;;0.20;0.20;;;11.50;99.90;;;;;;5072759;28;20076;-83
2022/06/01 05:38:45;;;;;;;1.55;0.30;;;11.50;99.90;;;;;;5089169;28;20127;-81
2022/06/01 05:41:14;;;;;;;0.40;0.28;;;11.60;99.90;;;;;;5088976;28;20078;-83
2022/06/01 05:43:41;;;;;;;0.20;0.20;;;11.70;99.90;;;;;;5072463;28;20083;-82
2022/06/01 05:46:07;;;;;;;0.13;0.13;;;11.70;99.90;;;;;;5055871;28;20070;-82
2022/06/01 05:48:34;;;;;;;0.85;0.50;;;11.80;99.90;;;;;;5089222;28;20086;-83
2022/06/01 05:51:01;;;;;;;0.22;0.22;;;11.80;99.90;;;;;;5072263;28;20075;-81
2022/06/01 05:53:28;;;;;;;0.22;0.20;;;11.80;99.90;;;;;;5056160;28;20127;-82
2022/06/01 05:55:54;;;;;;;0.20;0.20;;;11.90;99.90;;;;;;5072296;28;20044;-83
2022/06/01 05:58:25;;;;;;;0.70;0.50;;;11.90;99.90;;;;;;5055717;28;20052;-83
2022/06/01 06:00:53;;;;;;;0.40;0.35;;;11.90;99.90;;;;;;5072482;28;20049;-82
2022/06/01 06:03:23;;;;;;;0.95;0.40;;;12.00;99.90;;;;;;5088830;28;20036;-83
2022/06/01 06:08:36;;;;;;;0.80;0.50;;;12.00;99.90;;;;;;5105286;28;20048;-81
2022/06/01 06:11:03;;;;;;;0.52;0.38;;;12.00;99.90;;;;;;5055795;28;20083;-82
2022/06/01 06:13:30;;;;;;;0.73;0.30;;;12.10;99.90;;;;;;5056127;28;20080;-83
2022/06/01 06:15:56;;;;;;;1.02;0.45;;;12.10;99.90;;;;;;5055990;28;20856;-82
2022/06/01 06:18:23;;;;;;;0.90;0.50;;;12.10;99.90;;;;;;5055830;28;20484;-84
2022/06/01 06:20:50;;;;;;;0.73;0.50;;;12.10;99.90;;;;;;5055349;28;20063;-84
2022/06/01 06:23:18;;;;;;;0.55;0.43;;;12.10;99.90;;;;;;5027799;28;20501;-84
2022/06/01 06:25:44;;;;;;;0.68;0.45;;;12.10;99.90;;;;;;5053908;28;20124;-84
2022/06/01 06:28:12;;;;;;;1.00;0.50;;;12.00;99.90;;;;;;5055597;28;20124;-84
2022/06/01 06:30:39;;;;;;;0.50;0.50;;;12.00;99.90;;;;;;5071172;28;20064;-84
2022/06/01 06:33:07;;;;;;;1.27;0.77;;;12.00;99.90;;;;;;5072040;28;20052;-83
2022/06/01 06:35:37;;;;;;;0.93;0.52;;;12.00;99.90;;;;;;5055870;28;21485;-84
2022/06/01 06:38:05;;;;;;;0.60;0.50;;;12.00;99.90;;;;;;5088374;28;20051;-83
2022/06/01 06:40:31;;;;;;;0.80;0.45;;;12.10;99.90;;;;;;5072662;28;20063;-84
2022/06/01 06:42:58;;;;;;;0.60;0.50;;;12.10;99.90;;;;;;5075915;28;20123;-84
2022/06/01 06:45:25;;;;;;;0.68;0.40;;;12.10;99.90;;;;;;5075148;28;20119;-84
2022/06/01 06:47:52;;;;;;;1.60;0.73;;;12.10;99.90;;;;;;5047972;28;20124;-84
2022/06/01 06:50:20;;;;;;;0.82;0.40;;;12.10;99.90;;;;;;5058058;28;20413;-84
2022/06/01 06:52:47;;;;;;;0.63;0.40;;;12.10;99.90;;;;;;5091809;28;20073;-84
2022/06/01 06:55:14;;;;;;;0.13;0.13;;;12.10;99.90;;;;;;5076387;28;20037;-83
2022/06/01 06:57:43;;;;;;;0.65;0.43;;;12.10;99.90;;;;;;5050507;28;20045;-84
2022/06/01 07:00:11;;;;;;;0.65;0.43;;;12.10;99.90;;;;;;5080948;28;20036;-86
2022/06/01 07:02:38;;;;;;;0.90;0.57;;;12.00;99.90;;;;;;5083347;28;20040;-83
2022/06/01 07:05:05;;;;;;;0.52;0.43;;;12.00;99.90;;;;;;5070878;28;20033;-83
2022/06/01 07:07:32;;;;;;;1.83;0.80;;;12.00;99.90;;;;;;5080554;28;20139;-84
2022/06/01 07:09:59;;;;;;;0.40;0.32;;;12.00;99.90;;;;;;5049016;28;20121;-83
2022/06/01 07:12:26;;;;;;;0.50;0.30;;;11.90;99.90;;;;;;5072552;28;20382;-82
2022/06/01 07:14:52;;;;;;;0.73;0.50;;;11.90;99.90;;;;;;5056585;28;20037;-83
2022/06/01 07:17:19;;;;;;;0.70;0.50;;;11.90;99.90;;;;;;5040013;28;20091;-84
2022/06/01 07:19:46;;;;;;;0.57;0.47;;;11.90;99.90;;;;;;5056259;28;20053;-83
2022/06/01 07:22:13;;;;;;;0.30;0.30;;;11.90;99.90;;;;;;5058238;28;20123;-84
2022/06/01 07:24:39;;;;;;;1.20;0.50;;;11.90;99.90;;;;;;5074508;28;20206;-81
2022/06/01 07:27:06;;;;;;;1.20;0.77;;;11.90;99.90;;;;;;5074506;28;20067;-83
2022/06/01 07:29:33;;;;;;;0.38;0.38;;;12.00;99.90;;;;;;5058023;28;20584;-83
2022/06/01 07:31:59;;;;;;;0.43;0.38;;;12.10;99.90;;;;;;5074079;28;20055;-83
2022/06/01 07:34:26;;;;;;;2.05;0.50;;;12.10;99.90;;;;;;5042359;28;20040;-82
2022/06/01 07:36:53;;;;;;;0.40;0.40;;;12.20;99.90;;;;;;5071719;28;20192;-83
2022/06/01 07:44:54;;;;;;;0.20;0.20;;;12.40;99.90;;;;;;5100144;28;20064;-83
2022/06/01 07:47:21;;;;;;;0.28;0.22;;;12.50;99.90;;;;;;5046313;28;20069;-82
2022/06/01 07:49:48;;;;;;;0.28;0.20;;;12.60;99.90;;;;;;5071181;28;20065;-82
2022/06/01 07:52:15;;;;;;;0.47;0.47;;;12.70;99.90;;;;;;5054486;28;20576;-82
2022/06/01 07:54:43;;;;;;;0.30;0.20;;;12.80;99.90;;;;;;5034346;28;20049;-82
2022/06/01 07:57:11;;;;;;;0.20;0.20;;;12.80;99.90;;;;;;5066745;28;20053;-82
2022/06/01 07:59:38;;;;;;;0.35;0.30;;;12.80;99.90;;;;;;5050577;28;20095;-82
2022/06/01 08:02:09;;;;;;;0.25;0.25;;;13.00;99.90;;;;;;5033899;28;20041;-82
2022/06/01 08:04:38;;;;;;;0.30;0.20;;;13.10;99.90;;;;;;5050833;28;20041;-83
2022/06/01 08:07:05;;;;;;;0.52;0.40;;;13.10;99.90;;;;;;5066707;28;20048;-83
2022/06/01 08:09:32;;;;;;;0.60;0.35;;;13.10;99.90;;;;;;5049780;28;20049;-84
2022/06/01 08:14:44;;;;;;;0.57;0.30;;;13.30;99.90;;;;;;5086800;28;20118;-82
2022/06/01 08:17:11;;;;;;;0.10;0.10;;;13.40;99.90;;;;;;5069622;28;20041;-82
2022/06/01 08:19:38;;;;;;;0.13;0.13;;;13.60;99.90;;;;;;5070195;28;20041;-83
2022/06/01 08:22:04;;;;;;;0.30;0.25;;;13.60;99.90;;;;;;5070010;28;20045;-82
2022/06/01 08:24:32;;;;;;;0.20;0.20;;;13.60;99.90;;;;;;5068219;28;20076;-83
2022/06/01 08:26:59;;;;;;;0.20;0.20;;;13.70;99.90;;;;;;5053682;28;20497;-83
2022/06/01 08:29:26;;;;;;;0.40;0.40;;;13.80;99.90;;;;;;5069374;28;20033;-83
2022/06/01 08:31:52;;;;;;;0.13;0.13;;;14.10;99.90;;;;;;5069983;28;20493;-83
2022/06/01 08:34:19;;;;;;;0.80;0.57;;;14.20;99.90;;;;;;5052937;28;20051;-83
2022/06/01 08:36:47;;;;;;;0.22;0.10;;;14.40;99.90;;;;;;5053502;28;20044;-82
2022/06/01 08:39:13;;;;;;;0.45;0.30;;;14.50;99.90;;;;;;5036623;28;20037;-82
2022/06/01 08:41:40;;;;;;;0.10;0.10;;;14.60;99.90;;;;;;5085957;28;20101;-83
2022/06/01 08:44:22;;;;;;;0.60;0.30;;;14.70;99.90;;;;;;5053161;28;20041;-82
2022/06/01 08:46:51;;;;;;;1.02;0.45;;;15.00;99.90;;;;;;5069025;28;20040;-83
2022/06/01 08:49:33;;;;;;;0.68;0.40;;;15.00;99.90;;;;;;5069288;28;20482;-83
2022/06/01 08:52:01;;;;;;;0.50;0.30;;;14.90;99.90;;;;;;5062436;28;20795;-83
2022/06/01 08:54:28;;;;;;;0.38;0.30;;;14.90;99.90;;;;;;5068366;28;20733;-83
2022/06/01 08:57:04;;;;;;;0.28;0.20;;;14.70;99.90;;;;;;5085332;28;20037;-83
2022/06/01 08:59:40;;;;;;;0.40;0.22;;;14.60;99.90;;;;;;5068428;28;20047;-84
2022/06/01 09:02:34;;;;;;;0.20;0.20;;;14.60;99.90;;;;;;5074052;28;20077;-82
2022/06/01 09:05:23;;;;;;;0.50;0.30;;;14.70;99.90;;;;;;5093475;28;20037;-84
2022/06/01 09:08:06;;;;;;;0.30;0.30;;;14.80;99.90;;;;;;5063579;28;20423;-83
2022/06/01 09:10:47;;;;;;;0.32;0.30;;;15.00;99.90;;;;;;5067095;28;20095;-82
2022/06/01 09:13:23;;;;;;;0.43;0.35;;;15.10;99.90;;;;;;5073846;28;20048;-82
2022/06/01 09:16:00;;;;;;;0.43;0.32;;;15.00;99.90;;;;;;5055511;28;20075;-83
2022/06/01 09:18:48;;;;;;;0.52;0.38;;;15.00;99.90;;;;;;5088007;28;20047;-82
2022/06/01 09:24:20;;;;;;;0.63;0.40;;;14.90;99.90;;;;;;5084975;28;20041;-83
2022/06/01 09:26:56;;;;;;;0.30;0.30;;;15.00;99.90;;;;;;5099767;28;20036;-83
2022/06/01 09:29:27;;;;;;;0.68;0.30;;;15.20;99.90;;;;;;5060438;28;20041;-83
2022/06/01 09:32:19;;;;;;;0.43;0.30;;;15.10;99.90;;;;;;5075147;28;20087;-83
2022/06/01 09:34:50;;;;;;;0.25;0.20;;;15.10;99.90;;;;;;5056344;28;20056;-83
2022/06/01 09:37:27;;;;;;;1.10;0.55;;;15.00;99.90;;;;;;5050758;28;20063;-82
2022/06/01 09:40:01;;;;;;;0.40;0.30;;;14.90;99.90;;;;;;5065626;28;20041;-84
2022/06/01 09:42:41;;;;;;;0.70;0.40;;;14.80;99.90;;;;;;5058043;28;20052;-83
2022/06/01 09:45:22;;;;;;;0.43;0.30;;;14.60;99.90;;;;;;5048779;28;20041;-83
2022/06/01 09:47:52;;;;;;;0.25;0.22;;;14.40;99.90;;;;;;5056379;28;20467;-83
2022/06/01 09:50:25;;;;;;;0.68;0.30;;;14.30;99.90;;;;;;5062397;28;20037;-83
2022/06/01 09:53:00;;;;;;;0.38;0.25;;;14.30;99.90;;;;;;5078807;28;20551;-83
2022/06/01 09:55:30;;;;;;;0.20;0.20;;;14.20;99.90;;;;;;5068376;28;20040;-83
2022/06/01 09:58:09;;;;;;;0.20;0.20;;;14.20;99.90;;;;;;5085202;28;20037;-84
2022/06/01 10:06:30;;;;;;;0.20;0.20;;;14.90;99.90;;;;;;5069712;28;20044;-84
2022/06/01 10:09:10;;;;;;;0.17;0.10;;;15.20;99.90;;;;;;5067626;28;20045;-84
2022/06/01 10:11:40;;;;;;;0.10;0.10;;;15.60;99.90;;;;;;5063330;28;20037;-84
2022/06/01 10:14:15;;;;;;;0.47;0.28;;;15.70;99.90;;;;;;5075332;28;20438;-83
2022/06/01 10:17:03;;;;;;;0.10;0.10;;;15.50;99.90;;;;;;5083139;28;20454;-82
2022/06/01 10:19:32;;;;;;;0.45;0.10;;;15.10;99.90;;;;;;5071979;28;20099;-83
2022/06/01 10:22:05;;;;;;;0.20;0.20;;;14.90;99.90;;;;;;5087773;28;20076;-83
2022/06/01 10:24:41;;;;;;;0.00;0.00;;;14.70;99.90;;;;;;5088278;28;20086;-83
2022/06/01 10:27:09;;;;;;;0.20;0.20;;;14.90;99.90;;;;;;5072593;28;20048;-83
2022/06/01 10:30:01;;;;;;;0.20;0.20;;;15.00;99.90;;;;;;5058807;28;20041;-84
2022/06/01 10:32:35;;;;;;;0.10;0.10;;;15.20;99.90;;;;;;5077807;28;20048;-83
2022/06/01 10:35:28;;;;;;;0.10;0.10;;;15.20;99.90;;;;;;5069929;28;20045;-83
2022/06/01 10:38:07;;;;;;;0.25;0.17;;;15.40;99.90;;;;;;5081942;28;20044;-83
2022/06/01 10:40:39;;;;;;;0.10;0.10;;;15.70;99.90;;;;;;5074346;28;20476;-84
2022/06/01 10:43:18;;;;;;;0.10;0.10;;;15.90;99.90;;;;;;5090634;28;20041;-84
2022/06/01 10:46:00;;;;;;;0.45;0.20;;;16.00;99.90;;;;;;5078257;28;20493;-83
2022/06/01 10:48:35;;;;;;;0.10;0.10;;;16.20;99.90;;;;;;5075070;28;20033;-83
2022/06/01 10:51:15;;;;;;;0.20;0.20;;;16.50;99.90;;;;;;5074975;28;20036;-83
2022/06/01 10:53:48;;;;;;;0.00;0.00;;;16.80;99.90;;;;;;5108410;28;20054;-83
2022/06/01 10:56:18;;;;;;;0.20;0.17;;;16.70;99.90;;;;;;5086648;28;20072;-83
2022/06/01 10:58:45;;;;;;;0.17;0.17;;;16.90;99.90;;;;;;5064336;28;20089;-83
2022/06/01 11:01:42;;;;;;;0.40;0.20;;;17.20;99.90;;;;;;5055047;28;20049;-85
2022/06/01 11:04:50;;;;;;;0.20;0.20;;;17.70;99.90;;;;;;5068984;28;20029;-83
2022/06/01 11:07:49;;;;;;;0.20;0.20;;;17.50;99.90;;;;;;5088711;28;20135;-84
2022/06/01 11:10:49;;;;;;;0.30;0.30;;;17.20;99.90;;;;;;5091257;28;20055;-83
2022/06/01 11:13:21;;;;;;;0.00;0.00;;;16.90;99.90;;;;;;5031409;28;20048;-84
2022/06/01 11:15:57;;;;;;;0.10;0.10;;;16.60;99.90;;;;;;5077587;28;20506;-84
2022/06/01 11:18:54;;;;;;;0.20;0.20;;;16.30;99.90;;;;;;5086347;28;20042;-83
2022/06/01 11:21:42;;;;;;;0.10;0.10;;;16.20;99.90;;;;;;5091060;28;20140;-84
2022/06/01 11:24:38;;;;;;;0.17;0.17;;;15.80;99.90;;;;;;5082760;28;20105;-84
2022/06/01 11:27:39;;;;;;;0.10;0.10;;;15.70;99.90;;;;;;5088544;28;20048;-84
2022/06/01 11:30:22;;;;;;;0.10;0.10;;;15.30;99.90;;;;;;5070958;28;20102;-84
2022/06/01 11:32:57;;;;;;;0.47;0.15;;;15.40;99.90;;;;;;5100943;28;20072;-84
2022/06/01 11:35:43;;;;;;;0.35;0.30;;;15.60;99.90;;;;;;5086066;28;20045;-84
2022/06/01 11:38:35;;;;;;;0.20;0.20;;;15.90;99.90;;;;;;5054194;28;20044;-84
2022/06/01 11:41:11;;;;;;;0.10;0.10;;;16.20;99.90;;;;;;5070344;28;20041;-84
2022/06/01 11:43:47;;;;;;;0.15;0.15;;;16.70;99.90;;;;;;5084880;28;20044;-84
2022/06/01 11:46:20;;;;;;;0.40;0.20;;;16.90;99.90;;;;;;5085199;28;20037;-84
2022/06/01 11:48:55;;;;;;;0.20;0.10;;;17.10;99.90;;;;;;5089959;28;20080;-84
2022/06/01 11:51:45;;;;;;;0.10;0.10;;;17.20;99.90;;;;;;5084305;28;20127;-84
2022/06/01 11:54:25;;;;;;;0.10;0.10;;;17.00;99.90;;;;;;5054098;28;20076;-84
2022/06/01 11:57:37;;;;;;;0.10;0.10;;;17.00;99.90;;;;;;5073508;28;20109;-86
2022/06/01 12:00:40;;;;;;;0.20;0.20;;;16.70;99.90;;;;;;5070917;28;20052;-83
2022/06/01 12:03:16;;;;;;;0.10;0.10;;;16.30;99.90;;;;;;5062669;28;20044;-83
2022/06/01 12:06:07;;;;;;;0.30;0.20;;;16.10;99.90;;;;;;5088675;28;20059;-86
2022/06/01 12:08:43;;;;;;;0.13;0.13;;;15.90;99.90;;;;;;5086522;28;20036;-83
2022/06/01 12:11:33;;;;;;;0.13;0.03;;;15.50;99.90;;;;;;5097119;28;20142;-83
2022/06/01 12:14:00;;;;;;;0.35;0.28;;;15.20;99.90;;;;;;5089823;28;20132;-83
2022/06/01 12:16:28;;;;;;;0.10;0.10;;;15.00;99.90;;;;;;5042674;28;20129;-84
2022/06/01 12:19:11;;;;;;;0.03;0.00;;;14.60;99.90;;;;;;5085750;28;20105;-83
2022/06/01 12:21:44;;;;;;;0.20;0.20;;;14.00;99.90;;;;;;5084091;28;20119;-83
2022/06/01 12:30:08;;;;;;;0.32;0.20;;;12.70;99.90;;;;;;5083702;28;20044;-84
2022/06/01 12:33:07;;;;;;;0.20;0.20;;;12.50;99.90;;;;;;5074661;28;20057;-84
2022/06/01 12:35:42;;;;;;;0.10;0.10;;;12.30;99.90;;;;;;5060956;28;20087;-83
2022/06/01 12:38:31;;;;;;;;;;;12.20;99.90;;;;;;5073232;28;20078;-84
2022/06/01 12:41:17;;;;;;;0.00;0.00;;;12.20;99.90;;;;;;5072625;28;19920;-83
2022/06/01 12:43:57;;;;;;;0.38;0.10;;;12.30;99.90;;;;;;5082339;28;20056;-85
2022/06/01 12:46:27;;;;;;;0.10;0.10;;;12.40;99.90;;;;;;5083790;28;20041;-90
2022/06/01 12:49:45;;;;;;;0.05;0.05;;;12.50;99.90;;;;;;5095645;28;20036;-87
2022/06/01 12:52:12;;;;;;;;;;;12.70;99.90;;;;;;5091268;28;20049;-88
2022/06/01 12:54:51;;;;;;;0.10;0.10;;;12.90;99.90;;;;;;5106406;28;20335;-89
2022/06/01 12:57:26;;;;;;;0.20;0.20;;;13.00;99.90;;;;;;5069446;28;20483;-85
2022/06/01 13:00:08;;;;;;;0.10;0.10;;;13.10;99.90;;;;;;5077121;28;20047;-89
2022/06/01 13:02:37;;;;;;;0.20;0.20;;;13.30;99.90;;;;;;5071014;28;20040;-85
2022/06/01 13:05:06;;;;;;;0.20;0.17;;;13.40;99.90;;;;;;5056679;28;20043;-85
2022/06/01 13:07:37;;;;;;;0.10;0.10;;;13.50;99.90;;;;;;5073915;28;20033;-85
2022/06/01 13:10:09;;;;;;;0.10;0.10;;;13.70;99.90;;;;;;5106717;28;20037;-84
2022/06/01 13:12:37;;;;;;;0.10;0.10;;;13.80;99.90;;;;;;5080169;28;20493;-85
2022/06/01 13:15:25;;;;;;;0.05;0.05;;;14.00;99.90;;;;;;5057391;28;20048;-89
2022/06/01 13:17:57;;;;;;;0.20;0.20;;;14.40;99.90;;;;;;5066909;28;20040;-88
2022/06/01 13:20:39;;;;;;;0.20;0.15;;;14.90;99.90;;;;;;5104658;28;20047;-85
2022/06/01 13:23:26;;;;;;;0.32;0.20;;;15.20;99.90;;;;;;5056703;28;20094;-85
2022/06/01 13:25:54;;;;;;;0.17;0.10;;;15.10;99.90;;;;;;5073198;28;20033;-89
2022/06/01 13:28:22;;;;;;;0.22;0.20;;;15.20;99.90;;;;;;5087057;28;20379;-88
2022/06/01 13:30:49;;;;;;;0.43;0.20;;;15.20;99.90;;;;;;5054774;28;20043;-85
2022/06/01 13:33:25;;;;;;;0.32;0.10;;;15.00;99.90;;;;;;5045614;28;20040;-85
2022/06/01 13:36:02;;;;;;;0.22;0.20;;;14.90;99.90;;;;;;5089137;28;20044;-86
2022/06/01 13:38:44;;;;;;;0.43;0.28;;;14.70;99.90;;;;;;5072872;28;20040;-84
2022/06/01 13:41:25;;;;;;;0.15;0.15;;;14.60;99.90;;;;;;5088934;28;20049;-88
2022/06/01 13:43:52;;;;;;;0.30;0.20;;;14.40;99.90;;;;;;5094287;28;20398;-84
2022/06/01 13:46:35;;;;;;;0.00;0.00;;;14.30;99.90;;;;;;5089429;28;20133;-84
2022/06/01 13:49:07;;;;;;;0.25;0.20;;;14.10;99.90;;;;;;5089629;28;20194;-88
2022/06/01 13:51:37;;;;;;;0.20;0.10;;;13.90;99.90;;;;;;5093992;28;20102;-88